sensor_id;sensor_type;location;lat;lon;timestamp;temperature;humidity
43015;DHT22;28637;50.554;7.032;2023-05-09T00:01:46;14.60;99.90
43015;DHT22;28637;50.554;7.032;2023-05-09T00:06:47;14.60;99.90
43015;DHT22;28637;50.554;7.032;2023-05-09T00:11:48;14.70;99.90
43015;DHT22;28637;50.554;7.032;2023-05-09T00:16:48;14.60;99.90
43015;DHT22;28637;50.554;7.032;2023-05-09T00:21:49;14.60;99.90
43015;DHT22;28637;50.554;7.032;2023-05-09T00:26:51;14.70;99.90
43015;DHT22;28637;50.554;7.032;2023-05-09T00:31:51;14.70;99.90
43015;DHT22;28637;50.554;7.032;2023-05-09T00:36:52;14.80;99.90
43015;DHT22;28637;50.554;7.032;2023-05-09T00:41:54;14.80;99.90
43015;DHT22;28637;50.554;7.032;2023-05-09T00:46:55;14.80;99.90
43015;DHT22;28637;50.554;7.032;2023-05-09T00:51:56;14.80;99.90
43015;DHT22;28637;50.554;7.032;2023-05-09T00:56:57;14.80;99.90
43015;DHT22;28637;50.554;7.032;2023-05-09T01:01:58;14.80;99.90
43015;DHT22;28637;50.554;7.032;2023-05-09T01:07:09;14.60;99.90
43015;DHT22;28637;50.554;7.032;2023-05-09T01:17:54;14.50;99.90
43015;DHT22;28637;50.554;7.032;2023-05-09T01:33:59;14.50;99.90
43015;DHT22;28637;50.554;7.032;2023-05-09T01:39:01;14.50;99.90
43015;DHT22;28637;50.554;7.032;2023-05-09T01:44:04;14.50;99.90
43015;DHT22;28637;50.554;7.032;2023-05-09T01:49:07;14.40;99.90
43015;DHT22;28637;50.554;7.032;2023-05-09T01:54:09;14.30;99.90
43015;DHT22;28637;50.554;7.032;2023-05-09T01:59:12;14.30;99.90
43015;DHT22;28637;50.554;7.032;2023-05-09T02:04:16;14.40;99.90
43015;DHT22;28637;50.554;7.032;2023-05-09T02:09:18;14.50;99.90
43015;DHT22;28637;50.554;7.032;2023-05-09T02:14:19;14.50;99.90
43015;DHT22;28637;50.554;7.032;2023-05-09T02:19:20;14.70;99.90
43015;DHT22;28637;50.554;7.032;2023-05-09T02:24:20;14.70;99.90
43015;DHT22;28637;50.554;7.032;2023-05-09T02:29:23;14.70;99.90
43015;DHT22;28637;50.554;7.032;2023-05-09T02:34:26;14.80;99.90
43015;DHT22;28637;50.554;7.032;2023-05-09T02:39:27;14.70;99.90
43015;DHT22;28637;50.554;7.032;2023-05-09T02:44:27;14.70;99.90
43015;DHT22;28637;50.554;7.032;2023-05-09T02:49:28;14.80;99.90
43015;DHT22;28637;50.554;7.032;2023-05-09T02:54:29;14.80;99.90
43015;DHT22;28637;50.554;7.032;2023-05-09T02:59:29;14.80;99.90
43015;DHT22;28637;50.554;7.032;2023-05-09T03:04:30;14.90;99.90
43015;DHT22;28637;50.554;7.032;2023-05-09T03:09:31;14.90;99.90
43015;DHT22;28637;50.554;7.032;2023-05-09T03:14:31;14.80;99.90
43015;DHT22;28637;50.554;7.032;2023-05-09T03:19:32;14.70;99.90
43015;DHT22;28637;50.554;7.032;2023-05-09T03:24:33;14.70;99.90
43015;DHT22;28637;50.554;7.032;2023-05-09T03:29:34;14.70;99.90
43015;DHT22;28637;50.554;7.032;2023-05-09T03:34:34;14.70;99.90
43015;DHT22;28637;50.554;7.032;2023-05-09T03:39:35;14.60;99.90
43015;DHT22;28637;50.554;7.032;2023-05-09T03:44:36;14.50;99.90
43015;DHT22;28637;50.554;7.032;2023-05-09T03:49:37;14.60;99.90
43015;DHT22;28637;50.554;7.032;2023-05-09T03:54:37;14.60;99.90
43015;DHT22;28637;50.554;7.032;2023-05-09T03:59:38;14.60;99.90
43015;DHT22;28637;50.554;7.032;2023-05-09T04:04:39;14.60;99.90
43015;DHT22;28637;50.554;7.032;2023-05-09T04:09:40;14.60;99.90
43015;DHT22;28637;50.554;7.032;2023-05-09T04:14:42;14.40;99.90
43015;DHT22;28637;50.554;7.032;2023-05-09T04:19:43;14.40;99.90
43015;DHT22;28637;50.554;7.032;2023-05-09T04:24:44;14.40;99.90
43015;DHT22;28637;50.554;7.032;2023-05-09T04:29:44;14.40;99.90
43015;DHT22;28637;50.554;7.032;2023-05-09T04:34:45;14.40;99.90
43015;DHT22;28637;50.554;7.032;2023-05-09T04:39:46;14.30;99.90
43015;DHT22;28637;50.554;7.032;2023-05-09T04:44:47;14.30;99.90
43015;DHT22;28637;50.554;7.032;2023-05-09T04:49:48;14.20;99.90
43015;DHT22;28637;50.554;7.032;2023-05-09T04:54:49;14.30;99.90
43015;DHT22;28637;50.554;7.032;2023-05-09T04:59:50;14.30;99.90
43015;DHT22;28637;50.554;7.032;2023-05-09T05:04:52;14.40;99.90
43015;DHT22;28637;50.554;7.032;2023-05-09T05:09:52;14.50;99.90
43015;DHT22;28637;50.554;7.032;2023-05-09T05:14:53;14.60;99.90
43015;DHT22;28637;50.554;7.032;2023-05-09T05:19:54;14.70;99.90
43015;DHT22;28637;50.554;7.032;2023-05-09T05:24:55;14.80;99.90
43015;DHT22;28637;50.554;7.032;2023-05-09T05:29:55;14.90;99.90
43015;DHT22;28637;50.554;7.032;2023-05-09T05:34:56;15.00;99.90
43015;DHT22;28637;50.554;7.032;2023-05-09T05:39:57;15.10;99.90
43015;DHT22;28637;50.554;7.032;2023-05-09T05:44:57;15.20;99.90
43015;DHT22;28637;50.554;7.032;2023-05-09T05:50:04;15.40;99.90
43015;DHT22;28637;50.554;7.032;2023-05-09T05:55:06;15.60;99.90
43015;DHT22;28637;50.554;7.032;2023-05-09T06:00:08;15.70;99.90
43015;DHT22;28637;50.554;7.032;2023-05-09T06:05:10;15.70;99.90
43015;DHT22;28637;50.554;7.032;2023-05-09T06:10:11;15.90;99.90
43015;DHT22;28637;50.554;7.032;2023-05-09T06:15:12;16.00;99.90
43015;DHT22;28637;50.554;7.032;2023-05-09T06:20:12;16.20;99.90
43015;DHT22;28637;50.554;7.032;2023-05-09T06:25:13;16.10;99.90
43015;DHT22;28637;50.554;7.032;2023-05-09T06:30:14;16.20;99.90
43015;DHT22;28637;50.554;7.032;2023-05-09T06:35:14;16.30;99.90
43015;DHT22;28637;50.554;7.032;2023-05-09T06:40:15;16.30;99.90
43015;DHT22;28637;50.554;7.032;2023-05-09T06:45:16;16.30;99.90
43015;DHT22;28637;50.554;7.032;2023-05-09T06:50:17;16.30;99.90
43015;DHT22;28637;50.554;7.032;2023-05-09T06:55:17;16.20;99.90
43015;DHT22;28637;50.554;7.032;2023-05-09T07:00:18;16.20;99.90
43015;DHT22;28637;50.554;7.032;2023-05-09T07:05:19;16.30;99.90
43015;DHT22;28637;50.554;7.032;2023-05-09T07:10:20;16.30;99.90
43015;DHT22;28637;50.554;7.032;2023-05-09T07:15:23;16.40;99.90
43015;DHT22;28637;50.554;7.032;2023-05-09T07:20:24;16.50;99.90
43015;DHT22;28637;50.554;7.032;2023-05-09T07:25:25;16.50;99.90
43015;DHT22;28637;50.554;7.032;2023-05-09T07:30:25;16.60;99.90
43015;DHT22;28637;50.554;7.032;2023-05-09T07:35:26;16.80;99.90
43015;DHT22;28637;50.554;7.032;2023-05-09T07:40:26;16.90;99.90
43015;DHT22;28637;50.554;7.032;2023-05-09T07:45:27;17.00;99.90
43015;DHT22;28637;50.554;7.032;2023-05-09T07:50:28;17.20;99.90
43015;DHT22;28637;50.554;7.032;2023-05-09T07:55:28;17.30;99.90
43015;DHT22;28637;50.554;7.032;2023-05-09T08:00:29;17.30;99.90
43015;DHT22;28637;50.554;7.032;2023-05-09T08:05:29;17.10;99.90
43015;DHT22;28637;50.554;7.032;2023-05-09T08:10:30;17.10;99.90
43015;DHT22;28637;50.554;7.032;2023-05-09T08:15:32;17.20;99.90
43015;DHT22;28637;50.554;7.032;2023-05-09T08:20:33;17.30;99.90
43015;DHT22;28637;50.554;7.032;2023-05-09T08:25:34;17.50;99.90
43015;DHT22;28637;50.554;7.032;2023-05-09T08:30:34;17.50;99.90
43015;DHT22;28637;50.554;7.032;2023-05-09T08:35:35;17.60;99.90
43015;DHT22;28637;50.554;7.032;2023-05-09T08:40:36;17.70;99.90
43015;DHT22;28637;50.554;7.032;2023-05-09T08:46:12;17.70;99.90
43015;DHT22;28637;50.554;7.032;2023-05-09T08:51:14;17.90;99.90
43015;DHT22;28637;50.554;7.032;2023-05-09T08:56:17;18.00;99.90
43015;DHT22;28637;50.554;7.032;2023-05-09T09:01:18;18.30;99.90
43015;DHT22;28637;50.554;7.032;2023-05-09T09:06:21;18.50;99.90
43015;DHT22;28637;50.554;7.032;2023-05-09T09:11:22;18.80;99.90
43015;DHT22;28637;50.554;7.032;2023-05-09T09:16:24;19.20;99.90
43015;DHT22;28637;50.554;7.032;2023-05-09T09:21:27;19.50;99.90
43015;DHT22;28637;50.554;7.032;2023-05-09T09:26:28;19.60;99.90
43015;DHT22;28637;50.554;7.032;2023-05-09T09:31:31;19.80;99.90
43015;DHT22;28637;50.554;7.032;2023-05-09T09:36:32;20.10;99.90
43015;DHT22;28637;50.554;7.032;2023-05-09T09:41:37;20.30;99.90
43015;DHT22;28637;50.554;7.032;2023-05-09T09:51:57;20.10;99.90
43015;DHT22;28637;50.554;7.032;2023-05-09T09:56:58;20.10;99.90
43015;DHT22;28637;50.554;7.032;2023-05-09T10:02:03;20.40;99.90
43015;DHT22;28637;50.554;7.032;2023-05-09T10:07:06;20.30;99.90
43015;DHT22;28637;50.554;7.032;2023-05-09T10:12:07;20.10;99.90
43015;DHT22;28637;50.554;7.032;2023-05-09T10:17:08;20.20;99.90
43015;DHT22;28637;50.554;7.032;2023-05-09T10:22:13;20.20;99.90
43015;DHT22;28637;50.554;7.032;2023-05-09T10:27:18;20.10;99.90
43015;DHT22;28637;50.554;7.032;2023-05-09T10:32:30;20.10;99.90
43015;DHT22;28637;50.554;7.032;2023-05-09T10:37:31;20.20;99.90
43015;DHT22;28637;50.554;7.032;2023-05-09T10:42:32;20.30;99.90
43015;DHT22;28637;50.554;7.032;2023-05-09T10:47:33;20.10;99.90
43015;DHT22;28637;50.554;7.032;2023-05-09T10:52:34;20.00;99.90
43015;DHT22;28637;50.554;7.032;2023-05-09T10:57:54;19.60;99.90
43015;DHT22;28637;50.554;7.032;2023-05-09T11:03:07;19.70;99.90
43015;DHT22;28637;50.554;7.032;2023-05-09T11:08:25;19.90;99.90
43015;DHT22;28637;50.554;7.032;2023-05-09T11:13:30;20.10;99.90
43015;DHT22;28637;50.554;7.032;2023-05-09T11:18:31;20.40;99.90
43015;DHT22;28637;50.554;7.032;2023-05-09T11:23:32;20.70;99.90
43015;DHT22;28637;50.554;7.032;2023-05-09T11:28:35;21.00;99.90
43015;DHT22;28637;50.554;7.032;2023-05-09T11:33:37;21.00;99.90
43015;DHT22;28637;50.554;7.032;2023-05-09T11:38:41;21.20;99.90
43015;DHT22;28637;50.554;7.032;2023-05-09T11:43:42;21.50;99.90
43015;DHT22;28637;50.554;7.032;2023-05-09T11:48:47;21.50;99.90
43015;DHT22;28637;50.554;7.032;2023-05-09T11:53:49;21.30;99.90
43015;DHT22;28637;50.554;7.032;2023-05-09T11:58:50;21.60;99.90
43015;DHT22;28637;50.554;7.032;2023-05-09T12:03:51;21.90;99.90
43015;DHT22;28637;50.554;7.032;2023-05-09T12:08:54;21.90;99.90
43015;DHT22;28637;50.554;7.032;2023-05-09T12:13:55;21.90;99.90
43015;DHT22;28637;50.554;7.032;2023-05-09T12:18:55;22.20;99.90
43015;DHT22;28637;50.554;7.032;2023-05-09T12:23:56;22.30;99.90
43015;DHT22;28637;50.554;7.032;2023-05-09T12:28:57;21.90;99.90
43015;DHT22;28637;50.554;7.032;2023-05-09T12:33:58;21.70;99.90
43015;DHT22;28637;50.554;7.032;2023-05-09T12:38:58;21.60;99.90
43015;DHT22;28637;50.554;7.032;2023-05-09T12:43:59;21.80;99.90
43015;DHT22;28637;50.554;7.032;2023-05-09T12:49:00;21.70;99.90
43015;DHT22;28637;50.554;7.032;2023-05-09T12:54:04;21.80;99.90
43015;DHT22;28637;50.554;7.032;2023-05-09T12:59:09;21.90;99.90
43015;DHT22;28637;50.554;7.032;2023-05-09T13:04:10;21.80;99.90
43015;DHT22;28637;50.554;7.032;2023-05-09T13:09:11;21.60;99.90
43015;DHT22;28637;50.554;7.032;2023-05-09T13:14:12;21.40;99.90
43015;DHT22;28637;50.554;7.032;2023-05-09T13:19:13;21.20;99.90
43015;DHT22;28637;50.554;7.032;2023-05-09T13:24:14;21.10;99.90
43015;DHT22;28637;50.554;7.032;2023-05-09T13:29:15;21.10;99.90
43015;DHT22;28637;50.554;7.032;2023-05-09T13:34:15;20.90;99.90
43015;DHT22;28637;50.554;7.032;2023-05-09T13:39:16;20.90;99.90
43015;DHT22;28637;50.554;7.032;2023-05-09T13:44:17;20.80;99.90
43015;DHT22;28637;50.554;7.032;2023-05-09T13:49:17;20.70;99.90
43015;DHT22;28637;50.554;7.032;2023-05-09T13:54:19;20.60;99.90
43015;DHT22;28637;50.554;7.032;2023-05-09T13:59:21;20.50;99.90
43015;DHT22;28637;50.554;7.032;2023-05-09T14:04:21;20.30;99.90
43015;DHT22;28637;50.554;7.032;2023-05-09T14:09:22;20.20;99.90
43015;DHT22;28637;50.554;7.032;2023-05-09T14:14:24;20.20;99.90
43015;DHT22;28637;50.554;7.032;2023-05-09T14:19:25;19.80;99.90
43015;DHT22;28637;50.554;7.032;2023-05-09T14:24:32;19.30;99.90
43015;DHT22;28637;50.554;7.032;2023-05-09T14:29:33;18.80;99.90
43015;DHT22;28637;50.554;7.032;2023-05-09T14:34:35;18.40;99.90
43015;DHT22;28637;50.554;7.032;2023-05-09T14:39:36;18.30;99.90
43015;DHT22;28637;50.554;7.032;2023-05-09T14:44:37;18.20;99.90
43015;DHT22;28637;50.554;7.032;2023-05-09T14:49:38;17.70;99.90
43015;DHT22;28637;50.554;7.032;2023-05-09T14:54:39;17.40;99.90
43015;DHT22;28637;50.554;7.032;2023-05-09T14:59:41;17.20;99.90
43015;DHT22;28637;50.554;7.032;2023-05-09T15:04:42;17.00;99.90
43015;DHT22;28637;50.554;7.032;2023-05-09T15:09:43;17.00;99.90
43015;DHT22;28637;50.554;7.032;2023-05-09T15:14:43;17.00;99.90
43015;DHT22;28637;50.554;7.032;2023-05-09T15:19:44;17.10;99.90
43015;DHT22;28637;50.554;7.032;2023-05-09T15:24:45;17.20;99.90
43015;DHT22;28637;50.554;7.032;2023-05-09T15:29:45;17.10;99.90
43015;DHT22;28637;50.554;7.032;2023-05-09T15:34:46;17.10;99.90
43015;DHT22;28637;50.554;7.032;2023-05-09T15:39:47;17.20;99.90
43015;DHT22;28637;50.554;7.032;2023-05-09T15:44:47;17.10;99.90
43015;DHT22;28637;50.554;7.032;2023-05-09T15:49:48;16.90;99.90
43015;DHT22;28637;50.554;7.032;2023-05-09T15:54:49;16.90;99.90
43015;DHT22;28637;50.554;7.032;2023-05-09T15:59:49;16.90;99.90
43015;DHT22;28637;50.554;7.032;2023-05-09T16:04:52;16.80;99.90
43015;DHT22;28637;50.554;7.032;2023-05-09T16:09:52;16.80;99.90
43015;DHT22;28637;50.554;7.032;2023-05-09T16:14:53;16.70;99.90
43015;DHT22;28637;50.554;7.032;2023-05-09T16:19:54;16.70;99.90
43015;DHT22;28637;50.554;7.032;2023-05-09T16:24:55;16.80;99.90
43015;DHT22;28637;50.554;7.032;2023-05-09T16:29:55;16.70;99.90
43015;DHT22;28637;50.554;7.032;2023-05-09T16:34:56;16.80;99.90
43015;DHT22;28637;50.554;7.032;2023-05-09T16:39:57;16.80;99.90
43015;DHT22;28637;50.554;7.032;2023-05-09T16:44:58;16.80;99.90
43015;DHT22;28637;50.554;7.032;2023-05-09T16:49:59;16.70;99.90
43015;DHT22;28637;50.554;7.032;2023-05-09T16:55:00;16.80;99.90
43015;DHT22;28637;50.554;7.032;2023-05-09T17:00:00;16.80;99.90
43015;DHT22;28637;50.554;7.032;2023-05-09T17:05:02;16.80;99.90
43015;DHT22;28637;50.554;7.032;2023-05-09T17:10:03;16.90;99.90
43015;DHT22;28637;50.554;7.032;2023-05-09T17:15:06;17.00;99.90
43015;DHT22;28637;50.554;7.032;2023-05-09T17:20:07;17.00;99.90
43015;DHT22;28637;50.554;7.032;2023-05-09T17:25:13;16.90;99.90
43015;DHT22;28637;50.554;7.032;2023-05-09T17:30:14;16.90;99.90
43015;DHT22;28637;50.554;7.032;2023-05-09T17:35:15;16.90;99.90
43015;DHT22;28637;50.554;7.032;2023-05-09T17:40:18;17.00;99.90
43015;DHT22;28637;50.554;7.032;2023-05-09T17:45:19;17.00;99.90
43015;DHT22;28637;50.554;7.032;2023-05-09T17:50:20;17.00;99.90
43015;DHT22;28637;50.554;7.032;2023-05-09T17:55:20;16.90;99.90
43015;DHT22;28637;50.554;7.032;2023-05-09T18:00:21;16.80;99.90
43015;DHT22;28637;50.554;7.032;2023-05-09T18:05:22;16.70;99.90
43015;DHT22;28637;50.554;7.032;2023-05-09T18:10:23;16.50;99.90
43015;DHT22;28637;50.554;7.032;2023-05-09T18:15:24;16.40;99.90
43015;DHT22;28637;50.554;7.032;2023-05-09T18:20:25;16.20;99.90
43015;DHT22;28637;50.554;7.032;2023-05-09T18:25:26;16.10;99.90
43015;DHT22;28637;50.554;7.032;2023-05-09T18:30:26;16.00;99.90
43015;DHT22;28637;50.554;7.032;2023-05-09T18:35:28;15.90;99.90
43015;DHT22;28637;50.554;7.032;2023-05-09T18:40:29;15.90;99.90
43015;DHT22;28637;50.554;7.032;2023-05-09T18:45:30;15.80;99.90
43015;DHT22;28637;50.554;7.032;2023-05-09T18:50:30;15.80;99.90
43015;DHT22;28637;50.554;7.032;2023-05-09T18:55:32;15.70;99.90
43015;DHT22;28637;50.554;7.032;2023-05-09T19:00:33;15.60;99.90
43015;DHT22;28637;50.554;7.032;2023-05-09T19:05:34;15.60;99.90
43015;DHT22;28637;50.554;7.032;2023-05-09T19:10:35;15.50;99.90
43015;DHT22;28637;50.554;7.032;2023-05-09T19:15:37;15.30;99.90
43015;DHT22;28637;50.554;7.032;2023-05-09T19:20:37;15.10;99.90
43015;DHT22;28637;50.554;7.032;2023-05-09T19:25:39;15.00;99.90
43015;DHT22;28637;50.554;7.032;2023-05-09T19:30:40;14.90;99.90
43015;DHT22;28637;50.554;7.032;2023-05-09T19:35:41;14.80;99.90
43015;DHT22;28637;50.554;7.032;2023-05-09T19:40:42;14.70;99.90
43015;DHT22;28637;50.554;7.032;2023-05-09T19:45:44;14.70;99.90
43015;DHT22;28637;50.554;7.032;2023-05-09T19:50:45;14.40;99.90
43015;DHT22;28637;50.554;7.032;2023-05-09T19:55:45;14.30;99.90
43015;DHT22;28637;50.554;7.032;2023-05-09T20:00:47;14.30;99.90
43015;DHT22;28637;50.554;7.032;2023-05-09T20:05:48;14.20;99.90
43015;DHT22;28637;50.554;7.032;2023-05-09T20:10:49;14.20;99.90
43015;DHT22;28637;50.554;7.032;2023-05-09T20:15:49;14.20;99.90
43015;DHT22;28637;50.554;7.032;2023-05-09T20:20:51;14.20;99.90
43015;DHT22;28637;50.554;7.032;2023-05-09T20:25:54;14.20;99.90
43015;DHT22;28637;50.554;7.032;2023-05-09T20:30:55;14.20;99.90
43015;DHT22;28637;50.554;7.032;2023-05-09T20:35:56;14.10;99.90
43015;DHT22;28637;50.554;7.032;2023-05-09T20:40:56;14.30;99.90
43015;DHT22;28637;50.554;7.032;2023-05-09T20:45:57;14.30;99.90
43015;DHT22;28637;50.554;7.032;2023-05-09T20:50:57;14.30;99.90
43015;DHT22;28637;50.554;7.032;2023-05-09T20:55:58;14.30;99.90
43015;DHT22;28637;50.554;7.032;2023-05-09T21:00:59;14.30;99.90
43015;DHT22;28637;50.554;7.032;2023-05-09T21:06:00;14.30;99.90
43015;DHT22;28637;50.554;7.032;2023-05-09T21:11:00;14.20;99.90
43015;DHT22;28637;50.554;7.032;2023-05-09T21:16:01;14.10;99.90
43015;DHT22;28637;50.554;7.032;2023-05-09T21:21:04;13.90;99.90
43015;DHT22;28637;50.554;7.032;2023-05-09T21:26:06;13.80;99.90
43015;DHT22;28637;50.554;7.032;2023-05-09T21:31:06;13.70;99.90
43015;DHT22;28637;50.554;7.032;2023-05-09T21:36:07;13.60;99.90
43015;DHT22;28637;50.554;7.032;2023-05-09T21:41:08;13.60;99.90
43015;DHT22;28637;50.554;7.032;2023-05-09T21:46:09;13.60;99.90
43015;DHT22;28637;50.554;7.032;2023-05-09T21:51:10;13.50;99.90
43015;DHT22;28637;50.554;7.032;2023-05-09T21:56:11;13.40;99.90
43015;DHT22;28637;50.554;7.032;2023-05-09T22:01:13;13.40;99.90
43015;DHT22;28637;50.554;7.032;2023-05-09T22:06:14;13.10;99.90
43015;DHT22;28637;50.554;7.032;2023-05-09T22:11:15;13.10;99.90
43015;DHT22;28637;50.554;7.032;2023-05-09T22:16:16;13.00;99.90
43015;DHT22;28637;50.554;7.032;2023-05-09T22:21:17;12.90;99.90
43015;DHT22;28637;50.554;7.032;2023-05-09T22:26:17;12.80;99.90
43015;DHT22;28637;50.554;7.032;2023-05-09T22:31:18;12.80;99.90
43015;DHT22;28637;50.554;7.032;2023-05-09T22:36:19;12.70;99.90
43015;DHT22;28637;50.554;7.032;2023-05-09T22:41:21;12.60;99.90
43015;DHT22;28637;50.554;7.032;2023-05-09T22:46:22;12.60;99.90
43015;DHT22;28637;50.554;7.032;2023-05-09T22:51:22;12.50;99.90
43015;DHT22;28637;50.554;7.032;2023-05-09T22:56:23;12.50;99.90
43015;DHT22;28637;50.554;7.032;2023-05-09T23:01:25;12.60;99.90
43015;DHT22;28637;50.554;7.032;2023-05-09T23:06:26;12.50;99.90
43015;DHT22;28637;50.554;7.032;2023-05-09T23:11:26;12.50;99.90
43015;DHT22;28637;50.554;7.032;2023-05-09T23:16:27;12.50;99.90
43015;DHT22;28637;50.554;7.032;2023-05-09T23:21:28;12.50;99.90
43015;DHT22;28637;50.554;7.032;2023-05-09T23:26:28;12.60;99.90
43015;DHT22;28637;50.554;7.032;2023-05-09T23:31:29;12.70;99.90
43015;DHT22;28637;50.554;7.032;2023-05-09T23:36:29;12.70;99.90
43015;DHT22;28637;50.554;7.032;2023-05-09T23:41:30;12.70;99.90
43015;DHT22;28637;50.554;7.032;2023-05-09T23:46:31;12.70;99.90
43015;DHT22;28637;50.554;7.032;2023-05-09T23:51:31;12.70;99.90
43015;DHT22;28637;50.554;7.032;2023-05-09T23:56:32;12.60;99.90
